Henry County Information

FAA: PHT - ICAO: KPHT

Henry County (Airport) Location

State Tennessee
County Henry
City Paris
Henry County (Airport) is 3 miles northwest of Paris, TN.
Latitude 36-20-09.4000N
Longitude 088-23-04.0000W
Elevation 580ft

Henry County METARs

METAR KPHT 170415Z AUTO 00000KT 6SM BR 13/12 A3000 RMK A01
Altimeter 30.00"
Temperature 13.0°C (55.4°F)
Wind 0° at 0KT
Clouds at 0ft
Visibility 6.0mi
Time observed: 2022-05-17T04:15:00Z

Henry County (Airport) Details

Status Operational
Activation October 1946
Ownership Public
Usage Public
Chart ST LOUIS
ATC on-site No
Beacon schedule sunset-sunrise
Beacon color clear green

Henry County (Airport) Contacts

Owner HENRY COUNTY
Owner address P.O. BOX 7, PARIS, TN 38242
Owner phone 731-642-5212
Manager CHAD GEHRKE
Manager address 1930 MEMORIAL BLVD., MURFREESBORO, TN 37129
Manager phone 615-849-6031

Henry County Radio Frequencies

Henry County (Airport) Radio Frequencies

UNICOM 123
Common traffic advisory frequency (CTAF) 123